DLH4ME LPFR-LPPT
Flight info
| Callsign | DLH4ME |
|---|---|
| Flight time | 0h 30m |
| Altitude | 24000 |
| Route | ODEMI DCT VATZI |
| Aircraft | A320/M-SDE3FGHIRWY/LB1 |
Departure
| Time | 2026-05-01 08:42 |
|---|---|
| Airport | Faro - Gago Coutinho International Airport (LPFR) |
Arrival
| Time | 2026-05-01 09:12 |
|---|---|
| Airport | Lisbon Humberto Delgado Airport (LPPT) |
| Time | Latitude | Longitude | Altitude | Speed | Heading |
|---|---|---|---|---|---|
| 2026-05-01 08:24 | 37.01913 | -7.96848 | -7 ft | 0 kts | 10° |
| 2026-05-01 08:31 | 37.01892 | -7.96852 | 21 ft | 4 kts | 6° |
| 2026-05-01 08:31 | 37.01864 | -7.96854 | 20 ft | 4 kts | 355° |
| 2026-05-01 08:31 | 37.01839 | -7.96847 | 21 ft | 4 kts | 323° |
| 2026-05-01 08:32 | 37.01829 | -7.96832 | 24 ft | 1 kts | 280° |
| 2026-05-01 08:32 | 37.01828 | -7.96828 | 24 ft | 0 kts | 280° |
| 2026-05-01 08:34 | 37.01831 | -7.96843 | 22 ft | 9 kts | 280° |
| 2026-05-01 08:34 | 37.01762 | -7.96896 | 20 ft | 15 kts | 188° |
| 2026-05-01 08:34 | 37.01684 | -7.96971 | 22 ft | 16 kts | 262° |
| 2026-05-01 08:35 | 37.01696 | -7.97109 | 20 ft | 16 kts | 273° |
| 2026-05-01 08:35 | 37.01717 | -7.97246 | 20 ft | 16 kts | 284° |
| 2026-05-01 08:35 | 37.01740 | -7.97387 | 20 ft | 17 kts | 281° |
| 2026-05-01 08:35 | 37.01764 | -7.97537 | 20 ft | 18 kts | 281° |
| 2026-05-01 08:36 | 37.01788 | -7.97699 | 24 ft | 20 kts | 279° |
| 2026-05-01 08:36 | 37.01814 | -7.97871 | 23 ft | 21 kts | 281° |
| 2026-05-01 08:36 | 37.01841 | -7.98060 | 24 ft | 23 kts | 279° |
| 2026-05-01 08:36 | 37.01864 | -7.98257 | 28 ft | 23 kts | 279° |
| 2026-05-01 08:37 | 37.01892 | -7.98461 | 28 ft | 19 kts | 279° |
| 2026-05-01 08:37 | 37.01889 | -7.98538 | 25 ft | 9 kts | 239° |
| 2026-05-01 08:37 | 37.01826 | -7.98574 | 25 ft | 0 kts | 192° |
| 2026-05-01 08:40 | 37.01824 | -7.98575 | 25 ft | 3 kts | 192° |
| 2026-05-01 08:40 | 37.01744 | -7.98574 | 26 ft | 14 kts | 148° |
| 2026-05-01 08:41 | 37.01707 | -7.98463 | 28 ft | 19 kts | 102° |
| 2026-05-01 08:41 | 37.01632 | -7.97985 | 26 ft | 95 kts | 101° |
| 2026-05-01 08:41 | 37.01478 | -7.96897 | 27 ft | 155 kts | 103° |
| 2026-05-01 08:41 | 37.01236 | -7.95451 | 444 ft | 174 kts | 102° |
| 2026-05-01 08:42 | 37.01024 | -7.93967 | 1307 ft | 173 kts | 99° |
| 2026-05-01 08:42 | 37.00819 | -7.92443 | 1918 ft | 186 kts | 99° |
| 2026-05-01 08:42 | 37.00592 | -7.90769 | 2400 ft | 204 kts | 99° |
| 2026-05-01 08:42 | 37.00331 | -7.88952 | 2952 ft | 218 kts | 101° |
| 2026-05-01 08:43 | 37.00052 | -7.87074 | 3854 ft | 221 kts | 101° |
| 2026-05-01 08:43 | 36.99774 | -7.85177 | 4817 ft | 222 kts | 101° |
| 2026-05-01 08:43 | 36.99538 | -7.83259 | 5719 ft | 225 kts | 93° |
| 2026-05-01 08:43 | 36.99759 | -7.81299 | 6614 ft | 234 kts | 72° |
| 2026-05-01 08:44 | 37.00578 | -7.79447 | 7205 ft | 256 kts | 52° |
| 2026-05-01 08:44 | 37.01802 | -7.77664 | 7620 ft | 283 kts | 51° |
| 2026-05-01 08:44 | 37.03104 | -7.75756 | 8438 ft | 289 kts | 49° |
| 2026-05-01 08:44 | 37.04716 | -7.74219 | 9366 ft | 297 kts | 25° |
| 2026-05-01 08:45 | 37.06740 | -7.73647 | 10235 ft | 303 kts | 358° |
| 2026-05-01 08:45 | 37.08804 | -7.74210 | 10961 ft | 311 kts | 333° |
| 2026-05-01 08:45 | 37.10633 | -7.75728 | 11343 ft | 331 kts | 314° |
| 2026-05-01 08:45 | 37.11671 | -7.77217 | 11591 ft | 343 kts | 303° |
| 2026-05-01 08:46 | 37.13067 | -7.79712 | 12186 ft | 354 kts | 303° |
| 2026-05-01 08:46 | 37.14550 | -7.82198 | 13041 ft | 357 kts | 305° |
| 2026-05-01 08:46 | 37.16102 | -7.84646 | 13939 ft | 360 kts | 307° |
| 2026-05-01 08:46 | 37.17690 | -7.87089 | 14712 ft | 362 kts | 306° |
| 2026-05-01 08:47 | 37.19800 | -7.90346 | 15779 ft | 365 kts | 306° |
| 2026-05-01 08:47 | 37.20856 | -7.91992 | 16314 ft | 366 kts | 306° |
| 2026-05-01 08:47 | 37.22447 | -7.94492 | 17120 ft | 367 kts | 306° |
| 2026-05-01 08:47 | 37.24037 | -7.97008 | 17918 ft | 369 kts | 305° |
| 2026-05-01 08:48 | 37.25631 | -7.99545 | 18662 ft | 371 kts | 304° |
| 2026-05-01 08:48 | 37.27277 | -8.02058 | 19315 ft | 376 kts | 311° |
| 2026-05-01 08:48 | 37.29354 | -8.04103 | 19940 ft | 383 kts | 321° |
| 2026-05-01 08:48 | 37.31565 | -8.05991 | 20575 ft | 385 kts | 322° |
| 2026-05-01 08:49 | 37.33796 | -8.07873 | 21190 ft | 388 kts | 322° |
| 2026-05-01 08:49 | 37.36050 | -8.09766 | 21788 ft | 391 kts | 322° |
| 2026-05-01 08:49 | 37.38324 | -8.11674 | 22382 ft | 394 kts | 321° |
| 2026-05-01 08:49 | 37.40609 | -8.13605 | 22966 ft | 397 kts | 321° |
| 2026-05-01 08:50 | 37.42905 | -8.15554 | 23540 ft | 400 kts | 321° |
| 2026-05-01 08:50 | 37.45222 | -8.17526 | 24005 ft | 403 kts | 321° |
| 2026-05-01 08:50 | 37.47541 | -8.19495 | 24153 ft | 403 kts | 321° |
| 2026-05-01 08:50 | 37.49875 | -8.21474 | 24183 ft | 405 kts | 321° |
| 2026-05-01 08:51 | 37.52218 | -8.23462 | 24187 ft | 406 kts | 321° |
| 2026-05-01 08:51 | 37.54561 | -8.25456 | 24190 ft | 406 kts | 321° |
| 2026-05-01 08:51 | 37.56903 | -8.27454 | 24188 ft | 407 kts | 321° |
| 2026-05-01 08:51 | 37.59247 | -8.29454 | 24193 ft | 407 kts | 321° |
| 2026-05-01 08:52 | 37.61591 | -8.31453 | 24193 ft | 407 kts | 321° |
| 2026-05-01 08:52 | 37.63937 | -8.33454 | 24193 ft | 407 kts | 321° |
| 2026-05-01 08:52 | 37.66281 | -8.35457 | 24192 ft | 407 kts | 321° |
| 2026-05-01 08:52 | 37.68632 | -8.37470 | 24194 ft | 407 kts | 321° |
| 2026-05-01 08:53 | 37.70975 | -8.39472 | 24194 ft | 407 kts | 321° |
| 2026-05-01 08:53 | 37.73323 | -8.41480 | 24191 ft | 407 kts | 321° |
| 2026-05-01 08:53 | 37.75665 | -8.43484 | 24191 ft | 407 kts | 321° |
| 2026-05-01 08:53 | 37.78012 | -8.45496 | 24190 ft | 407 kts | 321° |
| 2026-05-01 08:54 | 37.80322 | -8.47480 | 24188 ft | 407 kts | 321° |
| 2026-05-01 08:54 | 37.82699 | -8.49522 | 24185 ft | 408 kts | 321° |
| 2026-05-01 08:54 | 37.85041 | -8.51538 | 23973 ft | 404 kts | 321° |
| 2026-05-01 08:54 | 37.87325 | -8.53505 | 23358 ft | 401 kts | 321° |
| 2026-05-01 08:55 | 37.89623 | -8.55482 | 22786 ft | 398 kts | 321° |
| 2026-05-01 08:55 | 37.91903 | -8.57445 | 22271 ft | 395 kts | 321° |
| 2026-05-01 08:55 | 37.94168 | -8.59395 | 21752 ft | 392 kts | 321° |
| 2026-05-01 08:55 | 37.96448 | -8.61357 | 21263 ft | 390 kts | 321° |
| 2026-05-01 08:56 | 37.98654 | -8.63255 | 20815 ft | 387 kts | 321° |
| 2026-05-01 08:56 | 38.00878 | -8.65170 | 20373 ft | 385 kts | 321° |
| 2026-05-01 08:56 | 38.03084 | -8.67075 | 19937 ft | 383 kts | 321° |
| 2026-05-01 08:56 | 38.05283 | -8.68975 | 19507 ft | 381 kts | 321° |
| 2026-05-01 08:57 | 38.07465 | -8.70864 | 19055 ft | 379 kts | 321° |
| 2026-05-01 08:57 | 38.09636 | -8.72746 | 18626 ft | 377 kts | 321° |
| 2026-05-01 08:57 | 38.11793 | -8.74621 | 18144 ft | 375 kts | 321° |
| 2026-05-01 08:57 | 38.13937 | -8.76495 | 17640 ft | 373 kts | 321° |
| 2026-05-01 08:58 | 38.16066 | -8.78370 | 17152 ft | 372 kts | 321° |
| 2026-05-01 08:58 | 38.18179 | -8.80246 | 16665 ft | 370 kts | 321° |
| 2026-05-01 08:58 | 38.20276 | -8.82122 | 16192 ft | 367 kts | 321° |
| 2026-05-01 08:58 | 38.22345 | -8.83985 | 15768 ft | 361 kts | 321° |
| 2026-05-01 08:59 | 38.24345 | -8.85793 | 15351 ft | 344 kts | 321° |
| 2026-05-01 08:59 | 38.26255 | -8.87525 | 14948 ft | 330 kts | 321° |
| 2026-05-01 08:59 | 38.28094 | -8.89202 | 14562 ft | 323 kts | 321° |
| 2026-05-01 08:59 | 38.29909 | -8.90869 | 14208 ft | 322 kts | 321° |
| 2026-05-01 09:00 | 38.31708 | -8.92532 | 13832 ft | 314 kts | 321° |
| 2026-05-01 09:00 | 38.33444 | -8.94141 | 13442 ft | 304 kts | 321° |
| 2026-05-01 09:00 | 38.35158 | -8.95733 | 13050 ft | 305 kts | 321° |
| 2026-05-01 09:00 | 38.37017 | -8.97032 | 12667 ft | 308 kts | 341° |
| 2026-05-01 09:01 | 38.39115 | -8.97607 | 12291 ft | 309 kts | 348° |
| 2026-05-01 09:01 | 38.41238 | -8.98060 | 11908 ft | 309 kts | 349° |
| 2026-05-01 09:01 | 38.43357 | -8.98502 | 11427 ft | 306 kts | 349° |
| 2026-05-01 09:01 | 38.45410 | -8.98876 | 10962 ft | 299 kts | 352° |
| 2026-05-01 09:02 | 38.47458 | -8.99180 | 10515 ft | 294 kts | 352° |
| 2026-05-01 09:02 | 38.49484 | -8.99475 | 10053 ft | 292 kts | 352° |
| 2026-05-01 09:02 | 38.51494 | -8.99768 | 9559 ft | 289 kts | 352° |
| 2026-05-01 09:02 | 38.53486 | -9.00060 | 9065 ft | 287 kts | 352° |
| 2026-05-01 09:03 | 38.55482 | -9.00352 | 8583 ft | 290 kts | 352° |
| 2026-05-01 09:03 | 38.57490 | -9.00645 | 8104 ft | 292 kts | 352° |
| 2026-05-01 09:03 | 38.59513 | -9.00941 | 7634 ft | 293 kts | 352° |
| 2026-05-01 09:03 | 38.61531 | -9.01236 | 7163 ft | 288 kts | 352° |
| 2026-05-01 09:04 | 38.63487 | -9.01522 | 6705 ft | 278 kts | 352° |
| 2026-05-01 09:04 | 38.65390 | -9.01801 | 6229 ft | 273 kts | 352° |
| 2026-05-01 09:04 | 38.67262 | -9.02081 | 5750 ft | 269 kts | 352° |
| 2026-05-01 09:04 | 38.69110 | -9.02363 | 5276 ft | 266 kts | 353° |
| 2026-05-01 09:05 | 38.70946 | -9.02421 | 4818 ft | 263 kts | 1° |
| 2026-05-01 09:05 | 38.72761 | -9.02335 | 4317 ft | 260 kts | 2° |
| 2026-05-01 09:05 | 38.74576 | -9.02237 | 3840 ft | 262 kts | 2° |
| 2026-05-01 09:05 | 38.76378 | -9.02142 | 3358 ft | 255 kts | 2° |
| 2026-05-01 09:06 | 38.78120 | -9.02052 | 3042 ft | 244 kts | 2° |
| 2026-05-01 09:06 | 38.79765 | -9.01968 | 3006 ft | 229 kts | 2° |
| 2026-05-01 09:06 | 38.81309 | -9.01881 | 3004 ft | 217 kts | 2° |
| 2026-05-01 09:06 | 38.82800 | -9.01797 | 2973 ft | 213 kts | 2° |
| 2026-05-01 09:07 | 38.84268 | -9.01728 | 2947 ft | 209 kts | 1° |
| 2026-05-01 09:07 | 38.85683 | -9.01675 | 2922 ft | 198 kts | 1° |
| 2026-05-01 09:07 | 38.87017 | -9.01637 | 2900 ft | 192 kts | 359° |
| 2026-05-01 09:07 | 38.88264 | -9.02118 | 3016 ft | 190 kts | 324° |
| 2026-05-01 09:08 | 38.89054 | -9.03436 | 2981 ft | 190 kts | 289° |
| 2026-05-01 09:08 | 38.89098 | -9.05110 | 2613 ft | 190 kts | 256° |
| 2026-05-01 09:08 | 38.88616 | -9.06663 | 2373 ft | 186 kts | 240° |
| 2026-05-01 09:08 | 38.87860 | -9.07941 | 2235 ft | 175 kts | 225° |
| 2026-05-01 09:09 | 38.86911 | -9.08872 | 2061 ft | 166 kts | 208° |
| 2026-05-01 09:09 | 38.85889 | -9.09458 | 1772 ft | 158 kts | 202° |
| 2026-05-01 09:09 | 38.84922 | -9.09970 | 1562 ft | 144 kts | 202° |
| 2026-05-01 09:09 | 38.84018 | -9.10444 | 1369 ft | 138 kts | 203° |
| 2026-05-01 09:10 | 38.83140 | -9.10912 | 1206 ft | 136 kts | 202° |
| 2026-05-01 09:10 | 38.82270 | -9.11380 | 1034 ft | 135 kts | 202° |
| 2026-05-01 09:10 | 38.81401 | -9.11842 | 859 ft | 135 kts | 202° |
| 2026-05-01 09:10 | 38.80534 | -9.12313 | 663 ft | 135 kts | 202° |
| 2026-05-01 09:11 | 38.79669 | -9.12772 | 464 ft | 135 kts | 201° |
| 2026-05-01 09:11 | 38.78819 | -9.13228 | 358 ft | 122 kts | 202° |
| 2026-05-01 09:11 | 38.78189 | -9.13557 | 370 ft | 73 kts | 202° |
| 2026-05-01 09:11 | 38.77829 | -9.13758 | 365 ft | 50 kts | 202° |
| 2026-05-01 09:12 | 38.77543 | -9.13899 | 366 ft | 37 kts | 191° |
| 2026-05-01 09:12 | 38.77324 | -9.13897 | 357 ft | 4 kts | 176° |
| 2026-05-01 09:12 | 38.77323 | -9.13897 | 357 ft | 0 kts | 176° |
| 2026-05-01 09:12 | 38.77322 | -9.13896 | 357 ft | 0 kts | 176° |
| 2026-05-01 09:13 | 38.77304 | -9.13895 | 358 ft | 7 kts | 177° |
| 2026-05-01 09:13 | 38.77239 | -9.13850 | 357 ft | 16 kts | 116° |
| 2026-05-01 09:13 | 38.77262 | -9.13682 | 355 ft | 22 kts | 76° |
| 2026-05-01 09:14 | 38.77299 | -9.13476 | 346 ft | 27 kts | 78° |
| 2026-05-01 09:14 | 38.77322 | -9.13283 | 339 ft | 15 kts | 111° |
| 2026-05-01 09:14 | 38.77249 | -9.13238 | 337 ft | 8 kts | 135° |
| 2026-05-01 09:14 | 38.77248 | -9.13188 | 335 ft | 4 kts | 82° |
| 2026-05-01 09:15 | 38.77253 | -9.13157 | 335 ft | 3 kts | 78° |
| 2026-05-01 09:15 | 38.77254 | -9.13153 | 335 ft | 0 kts | 78° |
| 2026-05-01 09:15 | 38.77255 | -9.13150 | 336 ft | 1 kts | 77° |
| 2026-05-01 09:15 | 38.77255 | -9.13149 | 336 ft | 0 kts | 77° |